Time;durP1;ratioP1;P1;durP2;ratioP2;P2;SDS_P1;SDS_P2;PMS_P1;PMS_P2;Temp;Humidity;BMP_temperature;BMP_pressure;BME280_temperature;BME280_humidity;BME280_pressure;Samples;Min_cycle;Max_cycle;Signal;HPM_P1;HPM_P2
2022/02/22 00:01:40;;;;;;;11.27;1.70;;;;;;;;;;5040423;28;20425;-81
2022/02/22 00:04:06;;;;;;;8.52;1.52;;;;;;;;;;5024441;28;20037;-81
2022/02/22 00:06:31;;;;;;;9.25;1.65;;;;;;;;;;5039268;28;20029;-81
2022/02/22 00:08:57;;;;;;;10.20;1.80;;;;;;;;;;5026721;28;20037;-81
2022/02/22 00:11:23;;;;;;;4.68;2.38;;;;;;;;;;5021351;28;20064;-81
2022/02/22 00:13:49;;;;;;;10.80;1.85;;;;;;;;;;5041230;28;20029;-81
2022/02/22 00:16:14;;;;;;;11.60;2.60;;;;;;;;;;5038097;28;20041;-81
2022/02/22 00:18:40;;;;;;;6.90;1.65;;;;;;;;;;5023984;28;20040;-81
2022/02/22 00:21:06;;;;;;;5.75;1.77;;;;;;;;;;5024734;28;20037;-81
2022/02/22 00:23:33;;;;;;;10.68;1.60;;;;;;;;;;5040569;28;20037;-81
2022/02/22 00:25:58;;;;;;;8.48;1.65;;;;;;;;;;5040830;28;20108;-81
2022/02/22 00:28:25;;;;;;;7.57;1.50;;;;;;;;;;5041908;28;20045;-81
2022/02/22 00:30:52;;;;;;;9.40;2.00;;;;;;;;;;5039120;28;20037;-81
2022/02/22 00:33:18;;;;;;;10.10;1.90;;;;;;;;;;5020565;28;20037;-81
2022/02/22 00:35:44;;;;;;;7.97;1.70;;;;;;;;;;5041756;28;20040;-81
2022/02/22 00:38:11;;;;;;;10.50;1.73;;;;;;;;;;5025300;28;20037;-81
2022/02/22 00:40:38;;;;;;;12.55;2.03;;;;;;;;;;5038349;28;20590;-81
2022/02/22 00:43:04;;;;;;;6.22;1.50;;;;;;;;;;5023097;28;20096;-80
2022/02/22 00:45:30;;;;;;;7.72;2.08;;;;;;;;;;5038353;28;20522;-81
2022/02/22 00:47:56;;;;;;;6.65;1.90;;;;;;;;;;5024822;28;20051;-81
2022/02/22 00:50:22;;;;;;;8.85;1.90;;;;;;;;;;5024817;28;20080;-81
2022/02/22 00:52:48;;;;;;;12.48;2.17;;;;;;;;;;5039861;28;20120;-81
2022/02/22 00:55:14;;;;;;;7.32;1.83;;;;;;;;;;5059147;28;20041;-80
2022/02/22 00:57:43;;;;;;;9.60;2.38;;;;;;;;;;5041798;28;20059;-81
2022/02/22 01:00:09;;;;;;;6.97;1.50;;;;;;;;;;5038132;28;20040;-81
2022/02/22 01:02:35;;;;;;;6.45;1.60;;;;;;;;;;5039763;28;20060;-81
2022/02/22 01:05:01;;;;;;;6.68;2.55;;;;;;;;;;5024295;28;20486;-81
2022/02/22 01:07:27;;;;;;;10.13;1.90;;;;;;;;;;5039966;28;20112;-80
2022/02/22 01:09:53;;;;;;;8.25;1.63;;;;;;;;;;5039600;28;20514;-81
2022/02/22 01:12:19;;;;;;;9.30;1.92;;;;;;;;;;5058507;28;20060;-80
2022/02/22 01:14:45;;;;;;;3.80;1.50;;;;;;;;;;5037054;28;20067;-81
2022/02/22 01:17:11;;;;;;;9.40;1.90;;;;;;;;;;5040441;28;20100;-81
2022/02/22 01:19:37;;;;;;;7.55;1.50;;;;;;;;;;5024351;28;20040;-81
2022/02/22 01:22:04;;;;;;;7.22;1.65;;;;;;;;;;5017986;28;21079;-81
2022/02/22 01:24:30;;;;;;;6.32;1.67;;;;;;;;;;5036659;28;20112;-81
2022/02/22 01:26:56;;;;;;;6.75;1.55;;;;;;;;;;5036735;28;20577;-81
2022/02/22 01:29:21;;;;;;;8.65;2.35;;;;;;;;;;5039657;28;20094;-80
2022/02/22 01:31:47;;;;;;;7.15;2.38;;;;;;;;;;5038894;28;20391;-81
2022/02/22 01:34:13;;;;;;;9.63;2.00;;;;;;;;;;5047834;28;20040;-81
2022/02/22 01:36:38;;;;;;;11.43;1.75;;;;;;;;;;5023159;28;20163;-81
2022/02/22 01:39:05;;;;;;;8.30;1.70;;;;;;;;;;5022401;28;20114;-81
2022/02/22 01:41:32;;;;;;;10.00;2.10;;;;;;;;;;5025965;28;20060;-81
2022/02/22 01:43:58;;;;;;;8.43;1.90;;;;;;;;;;5022952;28;20105;-81
2022/02/22 01:46:24;;;;;;;7.22;1.73;;;;;;;;;;5022527;28;20055;-81
2022/02/22 01:48:50;;;;;;;6.05;1.70;;;;;;;;;;5039767;28;20048;-81
2022/02/22 01:51:16;;;;;;;15.82;2.10;;;;;;;;;;5023579;28;20036;-80
2022/02/22 01:53:41;;;;;;;7.82;2.20;;;;;;;;;;5040662;28;20525;-81
2022/02/22 01:56:07;;;;;;;13.85;2.70;;;;;;;;;;5023178;28;20115;-81
2022/02/22 01:58:34;;;;;;;8.05;1.52;;;;;;;;;;5022826;28;20068;-81
2022/02/22 02:01:00;;;;;;;11.25;2.45;;;;;;;;;;5023765;28;20758;-81
2022/02/22 02:03:26;;;;;;;7.97;2.03;;;;;;;;;;5030429;28;20040;-81
2022/02/22 02:05:52;;;;;;;10.85;1.85;;;;;;;;;;5043817;28;20420;-81
2022/02/22 02:08:18;;;;;;;5.45;1.40;;;;;;;;;;5028600;28;20033;-81
2022/02/22 02:10:44;;;;;;;8.07;1.92;;;;;;;;;;5028977;28;20064;-81
2022/02/22 02:13:11;;;;;;;11.13;1.70;;;;;;;;;;5043568;28;20063;-81
2022/02/22 02:15:37;;;;;;;8.75;1.55;;;;;;;;;;5025611;28;20463;-81
2022/02/22 02:18:03;;;;;;;5.60;1.55;;;;;;;;;;5027254;28;20044;-81
2022/02/22 02:20:28;;;;;;;8.35;1.42;;;;;;;;;;5025535;28;20037;-81
2022/02/22 02:22:57;;;;;;;8.55;2.25;;;;;;;;;;5028597;28;20092;-81
2022/02/22 02:25:23;;;;;;;8.75;2.00;;;;;;;;;;5043468;28;20075;-81
2022/02/22 02:27:49;;;;;;;6.55;1.30;;;;;;;;;;5042556;28;20043;-81
2022/02/22 02:30:16;;;;;;;6.00;1.38;;;;;;;;;;5027103;28;20037;-81
2022/02/22 02:32:42;;;;;;;10.32;1.55;;;;;;;;;;5042850;28;20048;-81
2022/02/22 02:35:09;;;;;;;8.45;1.67;;;;;;;;;;5043434;28;20041;-81
2022/02/22 02:37:40;;;;;;;3.13;0.95;;;;;;;;;;5025950;28;20037;-81
2022/02/22 02:40:08;;;;;;;7.82;1.33;;;;;;;;;;5027106;28;20464;-81
2022/02/22 02:42:34;;;;;;;13.15;1.75;;;;;;;;;;5040602;28;20025;-81
2022/02/22 02:45:00;;;;;;;10.57;1.38;;;;;;;;;;5025792;28;20104;-81
2022/02/22 02:47:26;;;;;;;8.90;1.50;;;;;;;;;;5042043;28;20041;-81
2022/02/22 02:49:52;;;;;;;7.85;1.40;;;;;;;;;;5006363;28;20056;-81
2022/02/22 02:52:18;;;;;;;6.50;1.35;;;;;;;;;;5041538;28;20091;-81
2022/02/22 02:54:44;;;;;;;6.85;1.75;;;;;;;;;;5025204;28;20037;-81
2022/02/22 02:57:09;;;;;;;6.78;1.75;;;;;;;;;;5025313;28;20045;-81
2022/02/22 02:59:35;;;;;;;8.77;1.40;;;;;;;;;;5024023;28;20057;-81
2022/02/22 03:02:01;;;;;;;11.88;1.80;;;;;;;;;;5019421;28;20097;-81
2022/02/22 03:04:27;;;;;;;9.32;1.63;;;;;;;;;;5024042;28;20148;-81
2022/02/22 03:06:53;;;;;;;9.57;1.65;;;;;;;;;;5028589;28;20044;-80
2022/02/22 03:09:18;;;;;;;11.82;1.75;;;;;;;;;;5022929;28;20059;-81
2022/02/22 03:11:45;;;;;;;10.07;2.15;;;;;;;;;;5024082;28;20063;-81
2022/02/22 03:14:11;;;;;;;13.45;1.98;;;;;;;;;;5024723;28;20037;-81
2022/02/22 03:16:37;;;;;;;11.90;1.83;;;;;;;;;;5039811;28;20119;-81
2022/02/22 03:19:03;;;;;;;13.85;1.88;;;;;;;;;;5022005;28;20095;-81
2022/02/22 03:21:32;;;;;;;9.77;1.83;;;;;;;;;;5024750;28;20044;-81
2022/02/22 03:23:59;;;;;;;7.63;1.42;;;;;;;;;;5022716;28;20127;-81
2022/02/22 03:26:26;;;;;;;10.32;1.90;;;;;;;;;;5039768;28;20040;-81
2022/02/22 03:28:52;;;;;;;14.82;1.90;;;;;;;;;;5023105;28;20048;-81
2022/02/22 03:31:18;;;;;;;5.43;1.63;;;;;;;;;;5023674;28;20143;-81
2022/02/22 03:33:44;;;;;;;7.50;1.35;;;;;;;;;;5024733;28;20103;-81
2022/02/22 03:36:10;;;;;;;7.43;1.45;;;;;;;;;;5024084;28;20057;-81
2022/02/22 03:38:36;;;;;;;8.30;1.90;;;;;;;;;;5039619;28;20040;-81
2022/02/22 03:41:02;;;;;;;8.43;1.40;;;;;;;;;;5039606;28;20055;-81
2022/02/22 03:43:29;;;;;;;10.60;2.28;;;;;;;;;;5024963;28;20033;-81
2022/02/22 03:45:55;;;;;;;7.93;1.80;;;;;;;;;;5024879;28;20407;-81
2022/02/22 03:48:21;;;;;;;9.10;1.92;;;;;;;;;;5039090;28;20092;-81
2022/02/22 03:50:48;;;;;;;5.60;1.15;;;;;;;;;;5037919;28;20040;-81
2022/02/22 03:53:16;;;;;;;6.55;1.63;;;;;;;;;;5039495;28;20048;-81
2022/02/22 03:55:42;;;;;;;4.43;1.05;;;;;;;;;;5021883;28;20037;-81
2022/02/22 03:58:08;;;;;;;9.63;1.63;;;;;;;;;;5037371;28;20051;-81
2022/02/22 04:00:35;;;;;;;6.78;1.92;;;;;;;;;;5038656;28;20046;-81
2022/02/22 04:03:03;;;;;;;6.43;1.52;;;;;;;;;;5016479;28;20521;-81
2022/02/22 04:05:30;;;;;;;10.13;1.63;;;;;;;;;;5039552;28;20040;-81
2022/02/22 04:07:56;;;;;;;7.38;2.30;;;;;;;;;;5022733;28;20071;-81
2022/02/22 04:10:23;;;;;;;8.32;1.98;;;;;;;;;;5038742;28;20502;-81
2022/02/22 04:12:49;;;;;;;8.25;1.88;;;;;;;;;;5025416;28;20037;-81
2022/02/22 04:15:15;;;;;;;13.50;1.95;;;;;;;;;;5022956;28;20041;-81
2022/02/22 04:17:41;;;;;;;16.13;2.15;;;;;;;;;;5024086;28;20332;-81
2022/02/22 04:20:08;;;;;;;12.73;2.22;;;;;;;;;;5039065;28;20468;-81
2022/02/22 04:22:34;;;;;;;14.25;2.60;;;;;;;;;;5056002;28;20052;-81
2022/02/22 04:25:00;;;;;;;12.52;3.38;;;;;;;;;;5039753;28;20037;-81
2022/02/22 04:27:26;;;;;;;11.25;2.53;;;;;;;;;;5038690;28;20033;-81
2022/02/22 04:29:52;;;;;;;15.45;2.70;;;;;;;;;;5038975;28;20409;-81
2022/02/22 04:32:18;;;;;;;13.63;2.80;;;;;;;;;;5039523;28;20383;-81
2022/02/22 04:34:43;;;;;;;19.63;3.72;;;;;;;;;;5024700;28;20097;-81
2022/02/22 04:37:16;;;;;;;11.30;2.80;;;;;;;;;;5018070;28;20118;-81
2022/02/22 04:39:44;;;;;;;14.30;2.90;;;;;;;;;;5040514;28;20097;-81
2022/02/22 04:42:09;;;;;;;23.45;3.33;;;;;;;;;;5021908;28;20052;-81
2022/02/22 04:44:35;;;;;;;17.88;3.65;;;;;;;;;;5021266;28;20041;-81
2022/02/22 04:47:01;;;;;;;17.45;3.80;;;;;;;;;;5037719;28;20037;-81
2022/02/22 04:49:27;;;;;;;19.80;3.60;;;;;;;;;;5015026;28;20036;-81
2022/02/22 04:51:52;;;;;;;17.88;4.38;;;;;;;;;;5054672;28;20041;-81
2022/02/22 04:54:18;;;;;;;23.13;3.33;;;;;;;;;;5038400;28;20041;-81
2022/02/22 04:56:44;;;;;;;13.73;3.08;;;;;;;;;;5038964;28;20037;-81
2022/02/22 04:59:10;;;;;;;22.63;3.60;;;;;;;;;;5025674;28;20740;-80
2022/02/22 05:01:35;;;;;;;19.30;3.22;;;;;;;;;;5040098;28;20569;-80
2022/02/22 05:04:02;;;;;;;21.23;3.70;;;;;;;;;;5040588;28;20122;-80
2022/02/22 05:06:29;;;;;;;19.63;3.65;;;;;;;;;;5039750;28;20432;-80
2022/02/22 05:08:54;;;;;;;16.70;3.13;;;;;;;;;;5034358;28;20068;-80
2022/02/22 05:11:20;;;;;;;18.45;2.67;;;;;;;;;;5024170;28;20041;-80
2022/02/22 05:13:46;;;;;;;24.20;3.90;;;;;;;;;;5039454;28;20041;-80
2022/02/22 05:16:12;;;;;;;18.10;3.50;;;;;;;;;;5040317;28;20047;-80
2022/02/22 05:18:37;;;;;;;17.33;3.53;;;;;;;;;;5058982;28;20041;-81
2022/02/22 05:21:03;;;;;;;20.70;2.92;;;;;;;;;;5043531;28;20149;-81
2022/02/22 05:23:34;;;;;;;25.35;5.72;;;;;;;;;;5039106;28;20575;-81
2022/02/22 05:26:01;;;;;;;14.88;3.22;;;;;;;;;;5026119;28;20039;-81
2022/02/22 05:28:27;;;;;;;19.10;3.83;;;;;;;;;;5024785;28;20039;-81
2022/02/22 05:30:53;;;;;;;25.02;3.35;;;;;;;;;;5041242;28;20056;-81
2022/02/22 05:33:20;;;;;;;18.23;2.90;;;;;;;;;;5024181;28;20029;-80
2022/02/22 05:35:46;;;;;;;17.80;3.30;;;;;;;;;;5040548;28;20033;-80
2022/02/22 05:38:13;;;;;;;21.15;3.92;;;;;;;;;;5042477;28;20100;-80
2022/02/22 05:40:39;;;;;;;17.08;4.00;;;;;;;;;;5031940;28;20037;-80
2022/02/22 05:43:05;;;;;;;22.13;3.40;;;;;;;;;;5029422;28;20041;-80
2022/02/22 05:45:31;;;;;;;19.15;3.72;;;;;;;;;;5014348;28;20124;-78
2022/02/22 05:47:57;;;;;;;20.45;3.65;;;;;;;;;;5027974;28;20132;-78
2022/02/22 05:50:23;;;;;;;22.98;3.95;;;;;;;;;;5029130;28;20041;-78
2022/02/22 05:52:49;;;;;;;15.02;3.30;;;;;;;;;;5028621;28;20036;-78
2022/02/22 05:55:14;;;;;;;16.83;2.95;;;;;;;;;;5030471;28;20044;-79
2022/02/22 05:57:40;;;;;;;23.27;3.80;;;;;;;;;;5029932;28;20037;-79
2022/02/22 06:00:08;;;;;;;19.45;3.45;;;;;;;;;;5013102;28;20126;-79
2022/02/22 06:02:34;;;;;;;16.55;3.03;;;;;;;;;;5012611;28;20037;-79
2022/02/22 06:05:00;;;;;;;24.92;3.97;;;;;;;;;;5046562;28;20098;-79
2022/02/22 06:07:25;;;;;;;21.77;4.20;;;;;;;;;;5033223;28;20067;-79
2022/02/22 06:09:51;;;;;;;17.80;3.92;;;;;;;;;;5016040;28;20036;-79
2022/02/22 06:12:17;;;;;;;18.70;4.75;;;;;;;;;;5025791;28;20037;-79
2022/02/22 06:14:42;;;;;;;24.50;4.28;;;;;;;;;;5015370;28;20124;-79
2022/02/22 06:17:08;;;;;;;19.70;4.22;;;;;;;;;;5029289;28;20103;-79
2022/02/22 06:19:34;;;;;;;19.40;2.92;;;;;;;;;;5013515;28;20041;-79
2022/02/22 06:22:00;;;;;;;16.48;2.95;;;;;;;;;;5013251;28;20044;-79
2022/02/22 06:24:25;;;;;;;20.52;3.03;;;;;;;;;;5028750;28;20037;-79
2022/02/22 06:26:51;;;;;;;21.92;3.17;;;;;;;;;;5028454;28;20043;-79
2022/02/22 06:29:17;;;;;;;15.85;3.15;;;;;;;;;;5030321;28;20037;-79
2022/02/22 06:31:42;;;;;;;21.08;3.95;;;;;;;;;;5012827;28;20124;-79
2022/02/22 06:34:08;;;;;;;19.92;3.55;;;;;;;;;;5014360;28;20069;-79
2022/02/22 06:36:34;;;;;;;19.38;3.72;;;;;;;;;;5028815;28;20037;-79
2022/02/22 06:39:00;;;;;;;27.60;4.85;;;;;;;;;;5027422;28;20140;-79
2022/02/22 06:41:27;;;;;;;19.55;4.00;;;;;;;;;;5012460;28;20057;-79
2022/02/22 06:43:53;;;;;;;25.10;4.68;;;;;;;;;;5028684;28;20296;-79
2022/02/22 06:46:18;;;;;;;21.02;4.15;;;;;;;;;;5013643;28;20036;-79
2022/02/22 06:48:44;;;;;;;20.90;3.45;;;;;;;;;;5028574;28;20085;-79
2022/02/22 06:51:10;;;;;;;22.67;3.90;;;;;;;;;;5028784;28;20106;-79
2022/02/22 06:53:36;;;;;;;21.48;3.45;;;;;;;;;;5012411;28;20041;-79
2022/02/22 06:56:02;;;;;;;23.20;3.83;;;;;;;;;;5012418;28;20040;-79
2022/02/22 06:58:28;;;;;;;24.40;5.30;;;;;;;;;;5025301;28;20041;-79
2022/02/22 07:00:55;;;;;;;24.30;3.97;;;;;;;;;;5010516;28;20402;-79
2022/02/22 07:03:21;;;;;;;19.90;4.10;;;;;;;;;;5010736;28;20036;-79
2022/02/22 07:05:47;;;;;;;17.33;3.50;;;;;;;;;;5015212;28;20377;-79
2022/02/22 07:08:13;;;;;;;20.73;5.35;;;;;;;;;;5017110;28;20057;-79
2022/02/22 07:10:38;;;;;;;23.60;4.45;;;;;;;;;;5028645;28;20041;-79
2022/02/22 07:13:04;;;;;;;19.92;4.65;;;;;;;;;;5027811;28;20037;-79
2022/02/22 07:15:30;;;;;;;21.27;3.83;;;;;;;;;;5028341;28;20481;-79
2022/02/22 07:17:57;;;;;;;20.95;4.38;;;;;;;;;;5028345;28;20049;-79
2022/02/22 07:20:26;;;;;;;25.05;4.03;;;;;;;;;;5028064;28;20041;-79
2022/02/22 07:22:55;;;;;;;19.13;4.15;;;;;;;;;;5044867;28;20056;-79
2022/02/22 07:25:21;;;;;;;16.48;3.63;;;;;;;;;;5012967;28;20412;-79
2022/02/22 07:27:47;;;;;;;21.88;4.10;;;;;;;;;;5011488;28;20033;-79
2022/02/22 07:30:15;;;;;;;20.63;3.97;;;;;;;;;;5029038;28;20099;-79
2022/02/22 07:32:40;;;;;;;22.08;3.53;;;;;;;;;;5026632;28;20046;-79
2022/02/22 07:35:08;;;;;;;21.45;3.80;;;;;;;;;;4995592;28;20116;-79
2022/02/22 07:37:36;;;;;;;21.77;5.68;;;;;;;;;;5027787;28;20131;-79
2022/02/22 07:40:03;;;;;;;25.00;3.40;;;;;;;;;;5027116;28;20044;-79
2022/02/22 07:42:29;;;;;;;25.80;5.07;;;;;;;;;;5025827;28;20438;-79
2022/02/22 07:44:55;;;;;;;22.13;4.75;;;;;;;;;;5019680;28;20069;-79
2022/02/22 07:47:20;;;;;;;27.55;4.40;;;;;;;;;;5043200;28;20441;-78
2022/02/22 07:49:46;;;;;;;17.48;3.55;;;;;;;;;;5011547;28;20055;-79
2022/02/22 07:52:12;;;;;;;20.58;3.70;;;;;;;;;;5026980;28;20048;-79
2022/02/22 07:54:38;;;;;;;18.10;3.92;;;;;;;;;;5031343;28;20128;-79
2022/02/22 07:57:04;;;;;;;15.27;3.42;;;;;;;;;;5017938;28;20073;-79
2022/02/22 07:59:30;;;;;;;28.95;4.45;;;;;;;;;;5025166;28;20056;-79
2022/02/22 08:01:56;;;;;;;23.60;4.45;;;;;;;;;;5010305;28;20037;-79
2022/02/22 08:04:26;;;;;;;18.20;3.70;;;;;;;;;;5025674;28;20090;-79
2022/02/22 08:06:52;;;;;;;20.75;3.88;;;;;;;;;;5010582;28;20048;-79
2022/02/22 08:09:18;;;;;;;16.67;3.65;;;;;;;;;;5027259;28;20548;-79
2022/02/22 08:11:43;;;;;;;23.15;3.53;;;;;;;;;;5028450;28;20080;-79
2022/02/22 08:14:09;;;;;;;18.67;3.42;;;;;;;;;;5013548;28;20052;-79
2022/02/22 08:16:35;;;;;;;19.52;3.70;;;;;;;;;;5029186;28;20037;-79
2022/02/22 08:19:01;;;;;;;16.65;3.80;;;;;;;;;;5011555;28;20500;-78
2022/02/22 08:21:26;;;;;;;15.90;3.30;;;;;;;;;;5007536;28;20513;-78
2022/02/22 08:23:52;;;;;;;21.50;3.10;;;;;;;;;;5023733;28;20067;-78
2022/02/22 08:26:19;;;;;;;16.30;3.60;;;;;;;;;;5010853;28;20064;-79
2022/02/22 08:28:46;;;;;;;16.55;3.40;;;;;;;;;;5025489;28;20052;-78
2022/02/22 08:31:12;;;;;;;15.40;3.30;;;;;;;;;;5043604;28;20047;-80
2022/02/22 08:33:38;;;;;;;13.85;3.00;;;;;;;;;;5024481;28;20032;-79
2022/02/22 08:36:04;;;;;;;13.77;2.92;;;;;;;;;;5026192;28;20045;-79
2022/02/22 08:38:29;;;;;;;13.65;3.35;;;;;;;;;;5010088;28;20064;-79
2022/02/22 08:40:55;;;;;;;16.65;3.20;;;;;;;;;;5025322;28;20059;-80
2022/02/22 08:43:21;;;;;;;16.55;2.67;;;;;;;;;;5027792;28;20070;-80
2022/02/22 08:45:47;;;;;;;14.07;3.40;;;;;;;;;;5016831;28;20083;-80
2022/02/22 08:48:13;;;;;;;13.65;3.17;;;;;;;;;;5010405;28;20061;-79
2022/02/22 08:50:39;;;;;;;17.05;3.35;;;;;;;;;;5009307;28;20067;-80
2022/02/22 08:53:05;;;;;;;12.25;3.63;;;;;;;;;;5009846;28;20450;-80
2022/02/22 08:55:31;;;;;;;14.15;2.92;;;;;;;;;;5010952;28;20044;-80
2022/02/22 08:57:58;;;;;;;15.45;2.88;;;;;;;;;;5025799;28;20045;-80
2022/02/22 09:00:25;;;;;;;12.32;2.50;;;;;;;;;;5026814;28;20037;-79
2022/02/22 09:02:53;;;;;;;17.13;2.78;;;;;;;;;;5015391;28;20532;-79
2022/02/22 09:05:19;;;;;;;11.48;2.67;;;;;;;;;;5027365;28;20033;-79
2022/02/22 09:07:45;;;;;;;15.68;2.80;;;;;;;;;;5009680;28;20537;-79
2022/02/22 09:10:16;;;;;;;11.55;2.30;;;;;;;;;;5011169;28;20037;-79
2022/02/22 09:12:43;;;;;;;10.98;2.22;;;;;;;;;;5011329;28;20421;-79
2022/02/22 09:15:10;;;;;;;17.10;3.47;;;;;;;;;;5006296;28;20036;-78
2022/02/22 09:17:36;;;;;;;8.65;2.75;;;;;;;;;;5022659;28;20049;-79
2022/02/22 09:20:04;;;;;;;10.98;2.47;;;;;;;;;;5023747;28;20037;-79
2022/02/22 09:22:29;;;;;;;9.05;1.90;;;;;;;;;;5006805;28;20716;-78
2022/02/22 09:24:55;;;;;;;9.02;2.17;;;;;;;;;;5021994;28;20133;-79
2022/02/22 09:27:21;;;;;;;10.93;1.90;;;;;;;;;;5023723;28;20048;-78
2022/02/22 09:29:47;;;;;;;11.05;2.67;;;;;;;;;;5006150;28;20080;-79
2022/02/22 09:32:12;;;;;;;8.88;1.77;;;;;;;;;;5025108;28;20033;-79
2022/02/22 09:34:38;;;;;;;9.00;2.17;;;;;;;;;;5024055;28;20115;-79
2022/02/22 09:37:05;;;;;;;7.22;2.78;;;;;;;;;;5024669;28;20044;-79
2022/02/22 09:39:31;;;;;;;10.52;2.15;;;;;;;;;;5042409;28;20079;-79
2022/02/22 09:41:57;;;;;;;15.30;2.60;;;;;;;;;;5011518;28;20156;-79
2022/02/22 09:44:23;;;;;;;9.82;2.50;;;;;;;;;;5041576;28;20041;-80
2022/02/22 09:46:50;;;;;;;10.90;3.63;;;;;;;;;;5025866;28;20083;-80
2022/02/22 09:49:15;;;;;;;17.52;3.25;;;;;;;;;;5026972;28;20497;-80
2022/02/22 09:51:41;;;;;;;30.63;8.55;;;;;;;;;;5027626;28;20072;-80
2022/02/22 09:54:07;;;;;;;15.05;5.22;;;;;;;;;;5011379;28;20041;-80
2022/02/22 09:56:33;;;;;;;11.50;4.13;;;;;;;;;;5025006;28;20421;-80
2022/02/22 09:58:58;;;;;;;28.98;10.73;;;;;;;;;;5009764;28;20045;-80
2022/02/22 10:01:25;;;;;;;40.30;17.58;;;;;;;;;;5026076;28;20056;-79
2022/02/22 10:04:00;;;;;;;19.38;6.55;;;;;;;;;;5009215;28;20041;-78
2022/02/22 10:06:26;;;;;;;16.27;3.90;;;;;;;;;;5023465;28;20055;-79
2022/02/22 10:08:56;;;;;;;13.82;3.25;;;;;;;;;;5008854;28;20105;-78
2022/02/22 10:11:22;;;;;;;13.40;3.03;;;;;;;;;;5005830;28;20103;-79
2022/02/22 10:13:48;;;;;;;9.73;1.95;;;;;;;;;;5008810;28;20434;-79
2022/02/22 10:16:14;;;;;;;12.02;3.03;;;;;;;;;;5025411;28;20095;-79
2022/02/22 10:18:51;;;;;;;29.48;10.40;;;;;;;;;;5008597;28;20701;-79
2022/02/22 10:21:18;;;;;;;14.52;3.53;;;;;;;;;;5024631;28;20569;-80
2022/02/22 10:23:44;;;;;;;13.82;3.25;;;;;;;;;;5009792;28;20040;-80
2022/02/22 10:26:20;;;;;;;10.27;2.17;;;;;;;;;;5012934;28;20549;-79
2022/02/22 10:28:46;;;;;;;11.88;2.30;;;;;;;;;;5045619;28;20033;-79
2022/02/22 10:31:12;;;;;;;12.38;2.55;;;;;;;;;;5029605;28;20033;-79
2022/02/22 10:33:44;;;;;;;13.85;2.63;;;;;;;;;;5027712;28;20113;-79
2022/02/22 10:36:18;;;;;;;10.10;2.42;;;;;;;;;;5012042;28;20037;-79
2022/02/22 10:38:44;;;;;;;8.10;1.88;;;;;;;;;;5026424;28;20041;-79
2022/02/22 10:41:15;;;;;;;13.25;2.67;;;;;;;;;;5011402;28;20114;-79
2022/02/22 10:43:56;;;;;;;15.20;2.63;;;;;;;;;;5030028;28;20037;-80
2022/02/22 10:46:27;;;;;;;11.15;2.80;;;;;;;;;;5025685;28;20611;-79
2022/02/22 10:49:01;;;;;;;12.00;2.17;;;;;;;;;;5012066;28;20599;-79
2022/02/22 10:51:40;;;;;;;12.55;2.33;;;;;;;;;;5010503;28;20559;-79
2022/02/22 10:54:07;;;;;;;16.15;2.60;;;;;;;;;;5010620;28;20090;-79
2022/02/22 10:56:34;;;;;;;11.80;3.00;;;;;;;;;;5044915;28;20033;-79
2022/02/22 10:59:00;;;;;;;13.73;2.50;;;;;;;;;;5012269;28;20041;-79
2022/02/22 11:01:26;;;;;;;11.20;2.55;;;;;;;;;;5013593;28;20064;-79
2022/02/22 11:03:52;;;;;;;10.27;2.25;;;;;;;;;;5027672;28;20040;-79
2022/02/22 11:06:21;;;;;;;12.02;2.45;;;;;;;;;;5027750;28;20403;-79
2022/02/22 11:08:49;;;;;;;8.93;2.75;;;;;;;;;;5029368;28;20040;-79
2022/02/22 11:11:25;;;;;;;11.27;2.97;;;;;;;;;;5008279;28;20375;-79
2022/02/22 11:13:58;;;;;;;;;;;;;;;;;;5041610;28;20036;-79
2022/02/22 11:16:23;;;;;;;9.05;2.17;;;;;;;;;;5025797;28;20474;-79
2022/02/22 11:18:51;;;;;;;9.30;2.60;;;;;;;;;;5012462;28;20041;-79
2022/02/22 11:21:19;;;;;;;8.80;2.45;;;;;;;;;;5011268;28;20033;-79
2022/02/22 11:23:45;;;;;;;8.38;2.30;;;;;;;;;;5028706;28;20057;-79
2022/02/22 11:26:14;;;;;;;11.13;2.40;;;;;;;;;;5010059;28;20041;-78
2022/02/22 11:28:44;;;;;;;7.55;1.77;;;;;;;;;;5009914;28;20099;-79
2022/02/22 11:31:16;;;;;;;9.35;2.53;;;;;;;;;;5013686;28;20490;-79
2022/02/22 11:33:47;;;;;;;10.02;2.35;;;;;;;;;;5026169;28;20041;-80
2022/02/22 11:36:25;;;;;;;9.57;2.30;;;;;;;;;;5010718;28;20044;-80
2022/02/22 11:38:52;;;;;;;7.70;2.25;;;;;;;;;;5025728;28;20040;-79
2022/02/22 11:41:25;;;;;;;11.35;2.65;;;;;;;;;;5011806;28;20059;-81
2022/02/22 11:43:53;;;;;;;9.32;2.22;;;;;;;;;;5009882;28;20032;-80
2022/02/22 11:46:19;;;;;;;12.13;2.65;;;;;;;;;;5028039;28;20509;-79
2022/02/22 11:48:45;;;;;;;10.55;2.00;;;;;;;;;;5010287;28;20413;-79
2022/02/22 11:51:14;;;;;;;64.68;44.75;;;;;;;;;;5027766;28;20300;-80
2022/02/22 11:53:41;;;;;;;476.73;304.27;;;;;;;;;;5028392;28;20261;-80
2022/02/22 11:56:07;;;;;;;492.77;417.70;;;;;;;;;;5008168;28;20049;-80
2022/02/22 11:58:37;;;;;;;769.55;619.05;;;;;;;;;;5011622;28;20143;-79
2022/02/22 12:01:05;;;;;;;187.60;155.77;;;;;;;;;;5027744;28;20502;-80
2022/02/22 12:03:42;;;;;;;19.45;10.15;;;;;;;;;;5027581;28;20040;-80
2022/02/22 12:06:09;;;;;;;9.30;2.85;;;;;;;;;;5025924;28;20435;-81
2022/02/22 12:08:40;;;;;;;10.18;2.33;;;;;;;;;;5012108;28;20410;-81
2022/02/22 12:11:08;;;;;;;10.75;3.40;;;;;;;;;;5014470;28;20029;-80
2022/02/22 12:13:42;;;;;;;9.55;2.35;;;;;;;;;;5011839;28;20403;-81
2022/02/22 12:16:22;;;;;;;14.00;2.55;;;;;;;;;;5027609;28;20041;-81
2022/02/22 12:18:49;;;;;;;8.80;2.65;;;;;;;;;;5019796;28;20084;-80
2022/02/22 12:21:18;;;;;;;14.25;4.85;;;;;;;;;;5029084;28;20071;-81
2022/02/22 12:23:44;;;;;;;11.20;3.03;;;;;;;;;;5014110;28;20029;-81
2022/02/22 12:26:13;;;;;;;9.80;2.40;;;;;;;;;;5029194;28;20041;-81
2022/02/22 12:28:45;;;;;;;9.75;2.85;;;;;;;;;;5029642;28;20127;-81
2022/02/22 12:31:13;;;;;;;19.27;5.75;;;;;;;;;;5028501;28;20037;-82
2022/02/22 12:33:39;;;;;;;11.98;2.83;;;;;;;;;;5030305;28;20095;-81
2022/02/22 12:36:16;;;;;;;15.25;2.90;;;;;;;;;;5029731;28;20458;-82
2022/02/22 12:38:43;;;;;;;12.23;2.83;;;;;;;;;;5028177;28;20057;-81
2022/02/22 12:41:13;;;;;;;14.82;2.72;;;;;;;;;;5029430;28;20118;-81
2022/02/22 12:43:46;;;;;;;14.65;4.53;;;;;;;;;;5028025;28;20036;-81
2022/02/22 12:46:12;;;;;;;20.27;4.55;;;;;;;;;;5027518;28;20397;-81
2022/02/22 12:48:41;;;;;;;18.38;4.15;;;;;;;;;;5012763;28;20143;-80
2022/02/22 12:51:07;;;;;;;12.25;3.00;;;;;;;;;;5012068;28;20053;-80
2022/02/22 12:53:33;;;;;;;19.60;6.32;;;;;;;;;;5010988;28;20064;-80
2022/02/22 12:55:59;;;;;;;13.50;3.40;;;;;;;;;;5029207;28;20040;-81
2022/02/22 12:58:36;;;;;;;15.55;3.10;;;;;;;;;;5026780;28;20160;-80
2022/02/22 13:01:15;;;;;;;15.43;3.03;;;;;;;;;;5026347;28;20110;-80
2022/02/22 13:03:41;;;;;;;13.25;3.20;;;;;;;;;;5010519;28;20069;-80
2022/02/22 13:06:08;;;;;;;13.18;2.90;;;;;;;;;;4994918;28;20037;-80
2022/02/22 13:08:33;;;;;;;18.02;3.35;;;;;;;;;;5010905;28;20474;-80
2022/02/22 13:10:59;;;;;;;14.95;3.53;;;;;;;;;;4991900;28;20103;-80
2022/02/22 13:13:26;;;;;;;14.50;2.80;;;;;;;;;;5045705;28;20445;-80
2022/02/22 13:15:53;;;;;;;14.63;2.80;;;;;;;;;;5011360;28;20033;-80
2022/02/22 13:18:22;;;;;;;16.63;3.33;;;;;;;;;;5009734;28;20065;-80
2022/02/22 13:20:49;;;;;;;13.00;2.60;;;;;;;;;;5030033;28;20103;-81
2022/02/22 13:23:15;;;;;;;14.50;3.53;;;;;;;;;;5030535;28;20048;-80
2022/02/22 13:25:43;;;;;;;14.68;2.60;;;;;;;;;;5011642;28;20068;-81
2022/02/22 13:28:10;;;;;;;11.35;2.45;;;;;;;;;;5028369;28;20071;-82
2022/02/22 13:30:40;;;;;;;8.30;2.20;;;;;;;;;;5040349;28;20070;-81
2022/02/22 13:33:11;;;;;;;14.05;3.95;;;;;;;;;;5029034;28;20105;-80
2022/02/22 13:35:38;;;;;;;16.52;5.60;;;;;;;;;;5028979;28;21165;-80
2022/02/22 13:38:17;;;;;;;27.20;12.45;;;;;;;;;;5027220;28;20179;-81
2022/02/22 13:40:43;;;;;;;14.63;2.88;;;;;;;;;;5027708;28;20048;-81
2022/02/22 13:43:13;;;;;;;42.53;20.10;;;;;;;;;;5028824;28;20036;-80
2022/02/22 13:45:39;;;;;;;15.00;4.65;;;;;;;;;;5025019;28;20033;-80
2022/02/22 13:48:07;;;;;;;10.05;3.33;;;;;;;;;;5011246;28;20060;-82
2022/02/22 13:50:33;;;;;;;13.77;3.13;;;;;;;;;;5013700;28;20120;-83
2022/02/22 13:53:04;;;;;;;15.52;4.25;;;;;;;;;;5030340;28;20124;-82
2022/02/22 13:55:32;;;;;;;13.38;2.80;;;;;;;;;;5029527;28;20472;-82
2022/02/22 13:58:06;;;;;;;15.73;3.05;;;;;;;;;;5028477;28;20258;-82
2022/02/22 14:00:55;;;;;;;13.10;3.05;;;;;;;;;;5012803;28;20033;-81
2022/02/22 14:03:21;;;;;;;11.38;2.88;;;;;;;;;;5024785;28;20384;-82
2022/02/22 14:05:47;;;;;;;10.85;3.13;;;;;;;;;;5017765;28;20106;-81
2022/02/22 14:08:13;;;;;;;10.18;3.15;;;;;;;;;;5015880;28;20063;-82
2022/02/22 14:10:45;;;;;;;14.25;2.97;;;;;;;;;;5033327;28;20090;-81
2022/02/22 14:13:12;;;;;;;15.85;2.78;;;;;;;;;;5033471;28;20124;-81
2022/02/22 14:15:40;;;;;;;14.88;3.13;;;;;;;;;;5019316;28;20045;-84
2022/02/22 14:18:06;;;;;;;13.32;2.45;;;;;;;;;;5016152;28;20569;-82
2022/02/22 14:20:35;;;;;;;11.32;3.58;;;;;;;;;;5034328;28;20103;-82
2022/02/22 14:23:02;;;;;;;9.38;2.25;;;;;;;;;;5019523;28;20045;-83
2022/02/22 14:25:31;;;;;;;12.10;2.78;;;;;;;;;;5032400;28;20037;-81
2022/02/22 14:27:58;;;;;;;16.25;2.85;;;;;;;;;;5018910;28;20124;-83
2022/02/22 14:30:24;;;;;;;14.43;3.35;;;;;;;;;;5035497;28;20040;-83
2022/02/22 14:32:49;;;;;;;12.55;2.78;;;;;;;;;;5017325;28;20033;-81